createdAt,value
2017-03-28T00:00:21.760Z,20.75
2017-03-28T00:01:30.815Z,20.94
2017-03-28T00:02:40.532Z,20.84
2017-03-28T00:03:50.241Z,20.84
2017-03-28T00:04:59.600Z,20.75
2017-03-28T00:06:08.681Z,20.94
2017-03-28T00:07:17.777Z,20.75
2017-03-28T00:08:26.572Z,20.94
2017-03-28T00:09:35.984Z,20.84
2017-03-28T00:10:45.083Z,20.75
2017-03-28T00:11:54.165Z,20.56
2017-03-28T00:13:02.948Z,20.46
2017-03-28T00:14:12.055Z,20.94
2017-03-28T00:15:22.051Z,20.75
2017-03-28T00:16:31.417Z,21.04
2017-03-28T00:17:40.203Z,20.93
2017-03-28T00:18:49.635Z,20.75
2017-03-28T00:19:58.736Z,20.65
2017-03-28T00:21:08.027Z,20.26
2017-03-28T00:22:16.790Z,20.36
2017-03-28T00:23:25.843Z,20.26
2017-03-28T00:24:35.542Z,20.65
2017-03-28T00:25:44.873Z,20.25
2017-03-28T00:26:53.595Z,20.25
2017-03-28T00:28:02.646Z,20.45
2017-03-28T00:29:12.354Z,20.65
2017-03-28T00:30:22.384Z,20.83
2017-03-28T00:31:31.663Z,20.35
2017-03-28T00:32:41.064Z,20.46
2017-03-28T00:33:51.080Z,20.45
2017-03-28T00:35:00.763Z,20.16
2017-03-28T00:36:09.841Z,20.35
2017-03-28T00:37:18.591Z,19.98
2017-03-28T00:38:27.647Z,20.25
2017-03-28T00:39:36.750Z,20.16
2017-03-28T00:40:45.836Z,20.16
2017-03-28T00:41:54.927Z,20.35
2017-03-28T00:43:04.033Z,20.25
2017-03-28T00:44:13.909Z,20.26
2017-03-28T00:45:23.301Z,20.36
2017-03-28T00:46:32.053Z,20.35
2017-03-28T00:47:41.155Z,20.16
2017-03-28T00:48:51.140Z,20.16
2017-03-28T00:50:00.811Z,20.25
2017-03-28T00:51:09.919Z,20.16
2017-03-28T00:52:18.713Z,19.96
2017-03-28T00:53:27.810Z,20.16
2017-03-28T00:54:37.527Z,20.16
2017-03-28T00:55:46.868Z,20.35
2017-03-28T00:56:56.236Z,20.06
2017-03-28T00:58:05.894Z,20.16
2017-03-28T00:59:16.212Z,20.06
2017-03-28T01:00:25.924Z,20.06
2017-03-28T01:01:34.712Z,20.35
2017-03-28T01:02:43.815Z,20.16
2017-03-28T01:03:53.515Z,19.96
2017-03-28T01:05:02.616Z,19.96
2017-03-28T01:06:11.654Z,20.06
2017-03-28T01:07:20.741Z,19.87
2017-03-28T01:08:29.831Z,20.06
2017-03-28T01:09:38.895Z,19.96
2017-03-28T01:10:47.691Z,20.16
2017-03-28T01:11:57.374Z,20.06
2017-03-28T01:13:06.430Z,20.06
2017-03-28T01:14:15.873Z,19.96
2017-03-28T01:15:25.310Z,19.96
2017-03-28T01:16:34.378Z,20.25
2017-03-28T01:17:43.428Z,20.06
2017-03-28T01:18:52.826Z,20.25
2017-03-28T01:20:02.230Z,19.87
2017-03-28T01:21:11.025Z,20.25
2017-03-28T01:22:20.430Z,19.87
2017-03-28T01:23:30.143Z,20.25
2017-03-28T01:24:39.810Z,20.25
2017-03-28T01:25:49.172Z,20.25
2017-03-28T01:26:58.237Z,20.25
2017-03-28T01:28:07.294Z,20.16
2017-03-28T01:29:16.588Z,20.06
2017-03-28T01:30:26.273Z,20.25
2017-03-28T01:31:35.014Z,19.96
2017-03-28T01:32:43.798Z,20.25
2017-03-28T01:33:52.891Z,20.35
2017-03-28T01:35:02.302Z,20.25
2017-03-28T01:36:11.399Z,20.16
2017-03-28T01:37:20.484Z,20.16
2017-03-28T01:38:29.577Z,20.06
2017-03-28T01:39:39.298Z,19.96
2017-03-28T01:40:48.083Z,20.06
2017-03-28T01:41:57.467Z,20.06
2017-03-28T01:43:06.217Z,20.06
2017-03-28T01:44:15.010Z,20.06
2017-03-28T01:45:24.718Z,20.45
2017-03-28T01:46:34.113Z,20.06
2017-03-28T01:47:43.510Z,20.16
2017-03-28T01:48:52.912Z,20.16
2017-03-28T01:50:02.600Z,19.96
2017-03-28T01:51:11.673Z,20.35
2017-03-28T01:52:20.461Z,20.16
2017-03-28T01:53:29.246Z,20.45
2017-03-28T01:54:38.353Z,20.45
2017-03-28T01:55:47.173Z,20.35
2017-03-28T01:56:56.274Z,20.25
2017-03-28T01:58:05.679Z,20.25
2017-03-28T01:59:15.702Z,20.25
2017-03-28T02:00:25.111Z,20.16
2017-03-28T02:01:34.206Z,20.16
2017-03-28T02:02:43.316Z,20.25
2017-03-28T02:03:52.922Z,20.16
2017-03-28T02:05:02.320Z,20.16
2017-03-28T02:06:11.968Z,20.16
2017-03-28T02:07:21.068Z,20.25
2017-03-28T02:08:30.171Z,20.16
2017-03-28T02:09:39.877Z,20.16
2017-03-28T02:10:48.934Z,20.35
2017-03-28T02:11:58.005Z,20.35
2017-03-28T02:13:07.032Z,20.35
2017-03-28T02:14:16.175Z,20.25
2017-03-28T02:15:25.874Z,20.16
2017-03-28T02:16:34.934Z,20.16
2017-03-28T02:17:43.991Z,20.16
2017-03-28T02:18:54.305Z,20.06
2017-03-28T02:20:03.710Z,20.06
2017-03-28T02:21:12.462Z,20.64
2017-03-28T02:22:21.820Z,20.35
2017-03-28T02:23:31.496Z,20.45
2017-03-28T02:24:40.838Z,20.45
2017-03-28T02:25:49.894Z,20.64
2017-03-28T02:26:58.962Z,20.64
2017-03-28T02:28:08.358Z,20.45
2017-03-28T02:29:18.369Z,20.54
2017-03-28T02:30:28.017Z,20.54
2017-03-28T02:31:37.106Z,20.54
2017-03-28T02:32:46.184Z,20.64
2017-03-28T02:33:56.459Z,20.74
2017-03-28T02:35:06.011Z,20.35
2017-03-28T02:36:15.420Z,20.45
2017-03-28T02:37:24.200Z,20.45
2017-03-28T02:38:33.878Z,20.64
2017-03-28T02:39:42.899Z,20.25
2017-03-28T02:40:51.970Z,20.35
2017-03-28T02:42:01.385Z,20.83
2017-03-28T02:43:10.426Z,20.74
2017-03-28T02:44:19.823Z,20.74
2017-03-28T02:45:29.243Z,20.54
2017-03-28T02:46:38.338Z,20.83
2017-03-28T02:47:47.428Z,20.74
2017-03-28T02:48:57.419Z,20.93
2017-03-28T02:50:06.806Z,20.74
2017-03-28T02:51:16.071Z,21.03
2017-03-28T02:52:24.779Z,20.83
2017-03-28T02:53:34.436Z,20.74
2017-03-28T02:54:43.192Z,20.74
2017-03-28T02:55:52.540Z,20.64
2017-03-28T02:57:01.628Z,21.03
2017-03-28T02:58:10.681Z,20.74
2017-03-28T02:59:20.026Z,20.83
2017-03-28T03:00:29.712Z,20.83
2017-03-28T03:01:38.492Z,20.93
2017-03-28T03:02:47.272Z,20.64
2017-03-28T03:03:56.962Z,21.03
2017-03-28T03:05:06.046Z,20.64
2017-03-28T03:06:15.440Z,20.64
2017-03-28T03:07:29.287Z,20.64
2017-03-28T03:08:38.983Z,20.74
2017-03-28T03:09:48.650Z,20.74
2017-03-28T03:10:57.382Z,21.51
2017-03-28T03:12:06.440Z,21.99
2017-03-28T03:13:15.692Z,22.28
2017-03-28T03:14:25.680Z,22.47
2017-03-28T03:15:35.613Z,22.46
2017-03-28T03:16:44.958Z,22.46
2017-03-28T03:17:54.052Z,22.46
2017-03-28T03:19:03.458Z,22.47
2017-03-28T03:20:13.312Z,22.36
2017-03-28T03:21:22.093Z,22.27
2017-03-28T03:22:31.463Z,21.98
2017-03-28T03:23:41.417Z,22.19
2017-03-28T03:24:51.421Z,22.38
2017-03-28T03:26:00.786Z,22.08
2017-03-28T03:27:10.482Z,22.36
2017-03-28T03:28:19.270Z,22.36
2017-03-28T03:29:28.978Z,22.36
2017-03-28T03:30:38.675Z,22.36
2017-03-28T03:31:47.425Z,22.27
2017-03-28T03:32:56.773Z,22.46
2017-03-28T03:34:05.820Z,22.46
2017-03-28T03:35:15.651Z,22.56
2017-03-28T03:36:25.038Z,22.46
2017-03-28T03:37:33.790Z,21.98
2017-03-28T03:38:43.139Z,22.46
2017-03-28T03:39:52.224Z,22.66
2017-03-28T03:41:00.959Z,22.66
2017-03-28T03:42:09.709Z,22.56
2017-03-28T03:43:18.444Z,22.66
2017-03-28T03:44:28.447Z,22.75
2017-03-28T03:45:37.225Z,22.56
2017-03-28T03:46:45.999Z,22.46
2017-03-28T03:47:55.390Z,22.66
2017-03-28T03:49:04.485Z,22.85
2017-03-28T03:50:14.193Z,22.46
2017-03-28T03:51:22.958Z,22.27
2017-03-28T03:52:31.759Z,22.66
2017-03-28T03:53:41.156Z,22.75
2017-03-28T03:54:51.139Z,22.66
2017-03-28T03:56:00.824Z,22.56
2017-03-28T03:57:09.908Z,22.46
2017-03-28T03:58:18.992Z,22.36
2017-03-28T03:59:28.592Z,22.46
2017-03-28T04:00:37.983Z,22.75
2017-03-28T04:01:47.242Z,22.75
2017-03-28T04:02:56.596Z,22.46
2017-03-28T04:04:06.273Z,22.66
2017-03-28T04:05:15.620Z,22.94
2017-03-28T04:06:24.372Z,22.75
2017-03-28T04:07:33.386Z,22.56
2017-03-28T04:08:42.734Z,22.56
2017-03-28T04:09:52.428Z,22.56
2017-03-28T04:11:01.800Z,22.36
2017-03-28T04:12:11.137Z,22.75
2017-03-28T04:13:20.526Z,22.46
2017-03-28T04:14:30.226Z,22.66
2017-03-28T04:15:39.003Z,22.46
2017-03-28T04:16:48.090Z,22.66
2017-03-28T04:17:57.176Z,22.27
2017-03-28T04:19:06.258Z,22.36
2017-03-28T04:20:15.339Z,22.27
2017-03-28T04:21:24.119Z,22.46
2017-03-28T04:22:33.203Z,21.98
2017-03-28T04:23:42.607Z,22.17
2017-03-28T04:24:52.295Z,22.56
2017-03-28T04:26:01.689Z,22.17
2017-03-28T04:27:10.775Z,22.46
2017-03-28T04:28:20.475Z,22.09
2017-03-28T04:29:29.876Z,22.75
2017-03-28T04:30:39.260Z,22.17
2017-03-28T04:31:47.976Z,22.36
2017-03-28T04:32:57.294Z,22.66
2017-03-28T04:34:07.562Z,22.28
2017-03-28T04:35:16.654Z,22.09
2017-03-28T04:36:25.698Z,22.46
2017-03-28T04:37:34.718Z,22.09
2017-03-28T04:38:44.063Z,22.36
2017-03-28T04:39:54.345Z,22.56
2017-03-28T04:41:03.397Z,22.17
2017-03-28T04:42:13.095Z,22.27
2017-03-28T04:43:22.182Z,22.57
2017-03-28T04:44:32.157Z,22.47
2017-03-28T04:45:41.191Z,21.8
2017-03-28T04:46:49.904Z,22.09
2017-03-28T04:47:59.260Z,22.38
2017-03-28T04:49:08.355Z,22.46
2017-03-28T04:50:17.924Z,22.47
2017-03-28T04:51:26.666Z,22.47
2017-03-28T04:52:35.448Z,22.57
2017-03-28T04:53:45.143Z,22.57
2017-03-28T04:54:54.535Z,22.96
2017-03-28T04:56:03.624Z,22.47
2017-03-28T04:57:12.397Z,22.67
2017-03-28T04:58:21.763Z,22.67
2017-03-28T04:59:30.847Z,22.76
2017-03-28T05:00:40.880Z,22.67
2017-03-28T05:01:49.965Z,22.57
2017-03-28T05:02:58.721Z,22.76
2017-03-28T05:04:08.055Z,22.57
2017-03-28T05:05:17.709Z,22.47
2017-03-28T05:06:26.493Z,22.57
2017-03-28T05:07:35.275Z,21.99
2017-03-28T05:08:44.672Z,22.47
2017-03-28T05:09:54.066Z,22.47
2017-03-28T05:11:03.456Z,22.09
2017-03-28T05:12:12.233Z,22.57
2017-03-28T05:13:21.015Z,22.57
2017-03-28T05:14:30.692Z,22.38
2017-03-28T05:15:39.737Z,22.38
2017-03-28T05:16:48.487Z,22.28
2017-03-28T05:17:57.838Z,21.99
2017-03-28T05:19:07.541Z,22.47
2017-03-28T05:20:17.227Z,22.57
2017-03-28T05:21:25.980Z,22.67
2017-03-28T05:22:34.693Z,22.86
2017-03-28T05:23:44.327Z,22.57
2017-03-28T05:24:54.269Z,22.57
2017-03-28T05:26:03.613Z,22.38
2017-03-28T05:27:12.901Z,22.47
2017-03-28T05:28:22.272Z,21.8
2017-03-28T05:29:31.940Z,22.47
2017-03-28T05:30:41.322Z,22.38
2017-03-28T05:31:50.712Z,22.47
2017-03-28T05:33:00.073Z,22.38
2017-03-28T05:34:09.396Z,22.38
2017-03-28T05:35:18.447Z,22.38
2017-03-28T05:36:27.195Z,22.09
2017-03-28T05:37:36.539Z,22.38
2017-03-28T05:38:45.933Z,22.57
2017-03-28T05:39:55.631Z,22.86
2017-03-28T05:41:05.017Z,22.76
2017-03-28T05:42:14.303Z,22.57
2017-03-28T05:43:23.687Z,22.47
2017-03-28T05:44:33.087Z,22.09
2017-03-28T05:45:42.167Z,22.67
2017-03-28T05:46:50.946Z,22.39
2017-03-28T05:48:00.332Z,21.81
2017-03-28T05:49:09.117Z,22.49
2017-03-28T05:50:18.524Z,21.81
2017-03-28T05:51:27.282Z,22.19
2017-03-28T05:52:36.329Z,22.1
2017-03-28T05:53:46.029Z,22
2017-03-28T05:54:59.729Z,22
2017-03-28T05:56:08.810Z,22
2017-03-28T05:57:17.602Z,22
2017-03-28T05:58:26.675Z,22.1
2017-03-28T05:59:36.581Z,22.1
2017-03-28T06:00:45.351Z,22.19
2017-03-28T06:01:54.437Z,21.91
2017-03-28T06:03:03.528Z,22
2017-03-28T06:04:12.608Z,22
2017-03-28T06:05:21.995Z,21.62
2017-03-28T06:06:30.742Z,21.71
2017-03-28T06:07:40.396Z,21.62
2017-03-28T06:08:50.407Z,21.71
2017-03-28T06:09:59.803Z,21.71
2017-03-28T06:11:08.899Z,21.81
2017-03-28T06:12:18.251Z,21.91
2017-03-28T06:13:27.642Z,21.92
2017-03-28T06:14:37.404Z,21.71
2017-03-28T06:15:46.700Z,21.52
2017-03-28T06:16:55.462Z,21.53
2017-03-28T06:18:04.504Z,21.42
2017-03-28T06:19:13.281Z,21.42
2017-03-28T06:20:22.374Z,21.44
2017-03-28T06:21:31.762Z,21.72
2017-03-28T06:22:40.578Z,21.44
2017-03-28T06:23:50.285Z,21.53
2017-03-28T06:24:59.654Z,21.72
2017-03-28T06:26:08.401Z,21.52
2017-03-28T06:27:17.187Z,21.72
2017-03-28T06:28:26.892Z,21.34
2017-03-28T06:29:35.979Z,21.72
2017-03-28T06:30:45.678Z,21.53
2017-03-28T06:31:54.757Z,21.24
2017-03-28T06:33:04.152Z,21.62
2017-03-28T06:34:13.518Z,21.53
2017-03-28T06:35:22.568Z,21.44
2017-03-28T06:36:32.276Z,21.24
2017-03-28T06:37:41.665Z,21.34
2017-03-28T06:38:51.060Z,21.24
2017-03-28T06:40:00.735Z,21.14
2017-03-28T06:41:09.448Z,21.04
2017-03-28T06:42:18.200Z,21.14
2017-03-28T06:43:27.593Z,20.76
2017-03-28T06:44:37.599Z,20.86
2017-03-28T06:45:46.383Z,21.14
2017-03-28T06:46:55.457Z,21.04
2017-03-28T06:48:04.198Z,20.86
2017-03-28T06:49:12.977Z,20.86
2017-03-28T06:50:22.064Z,21.25
2017-03-28T06:51:31.742Z,20.86
2017-03-28T06:52:41.100Z,20.77
2017-03-28T06:53:49.884Z,20.96
2017-03-28T06:54:59.269Z,21.06
2017-03-28T06:56:08.366Z,21.06
2017-03-28T06:57:17.758Z,20.77
2017-03-28T06:58:27.155Z,20.67
2017-03-28T06:59:36.829Z,20.67
2017-03-28T07:00:45.872Z,20.77
2017-03-28T07:01:55.271Z,20.77
2017-03-28T07:03:04.360Z,20.86
2017-03-28T07:04:14.679Z,20.86
2017-03-28T07:05:24.378Z,20.96
2017-03-28T07:06:33.769Z,20.86
2017-03-28T07:07:42.560Z,20.48
2017-03-28T07:08:51.962Z,20.57
2017-03-28T07:10:00.699Z,20.68
2017-03-28T07:11:09.483Z,20.49
2017-03-28T07:12:18.545Z,20.39
2017-03-28T07:13:27.612Z,20.1
2017-03-28T07:14:36.684Z,20.39
2017-03-28T07:15:45.725Z,20.1
2017-03-28T07:16:54.501Z,20.29
2017-03-28T07:18:03.558Z,19.71
2017-03-28T07:19:13.196Z,19.71
2017-03-28T07:20:21.941Z,19.81
2017-03-28T07:21:30.701Z,20.11
2017-03-28T07:22:39.741Z,19.92
2017-03-28T07:23:49.453Z,19.73
2017-03-28T07:24:58.852Z,19.53
2017-03-28T07:26:07.943Z,19.53
2017-03-28T07:27:17.336Z,19.43
2017-03-28T07:28:26.459Z,19.06
2017-03-28T07:29:35.826Z,19.15
2017-03-28T07:30:44.574Z,19.06
2017-03-28T07:31:53.659Z,18.96
2017-03-28T07:33:03.032Z,18.77
2017-03-28T07:34:13.084Z,18.68
2017-03-28T07:35:22.172Z,18.19
2017-03-28T07:36:30.967Z,18.39
2017-03-28T07:37:40.364Z,17.9
2017-03-28T07:38:50.061Z,18.01
2017-03-28T07:39:59.756Z,17.91
2017-03-28T07:41:08.846Z,18.11
2017-03-28T07:42:17.981Z,17.82
2017-03-28T07:43:26.765Z,17.33
2017-03-28T07:44:36.491Z,17.34
2017-03-28T07:45:45.275Z,17.63
2017-03-28T07:46:54.360Z,17.34
2017-03-28T07:48:03.445Z,17.05
2017-03-28T07:49:12.804Z,17.34
2017-03-28T07:50:22.124Z,17.24
2017-03-28T07:51:31.173Z,17.16
2017-03-28T07:52:40.275Z,16.96
2017-03-28T07:53:49.061Z,17.16
2017-03-28T07:54:58.761Z,16.86
2017-03-28T07:56:07.876Z,16.86
2017-03-28T07:57:16.626Z,16.67
2017-03-28T07:58:25.406Z,16.86
2017-03-28T07:59:34.805Z,16.67
2017-03-28T08:00:43.585Z,16.86
2017-03-28T08:01:52.350Z,16.86
2017-03-28T08:03:01.710Z,17.25
2017-03-28T08:04:11.608Z,16.96
2017-03-28T08:05:20.699Z,17.06
2017-03-28T08:06:29.478Z,16.86
2017-03-28T08:07:38.256Z,17.25
2017-03-28T08:08:47.040Z,16.86
2017-03-28T08:09:55.822Z,16.77
2017-03-28T08:11:04.907Z,16.86
2017-03-28T08:12:13.968Z,17.16
2017-03-28T08:13:23.590Z,17.35
2017-03-28T08:14:32.943Z,17.44
2017-03-28T08:15:42.331Z,16.77
2017-03-28T08:16:51.722Z,17.16
2017-03-28T08:18:01.120Z,17.16
2017-03-28T08:19:10.825Z,17.44
2017-03-28T08:20:19.910Z,17.25
2017-03-28T08:21:29.013Z,16.96
2017-03-28T08:22:38.105Z,16.96
2017-03-28T08:23:46.881Z,17.25
2017-03-28T08:24:56.278Z,17.25
2017-03-28T08:26:05.058Z,17.44
2017-03-28T08:27:14.158Z,17.64
2017-03-28T08:28:22.942Z,17.25
2017-03-28T08:29:32.023Z,16.96
2017-03-28T08:30:41.419Z,16.96
2017-03-28T08:31:50.174Z,17.44
2017-03-28T08:32:59.438Z,17.16
2017-03-28T08:34:08.797Z,16.96
2017-03-28T08:35:18.217Z,17.35
2017-03-28T08:36:27.280Z,16.96
2017-03-28T08:37:36.056Z,17.44
2017-03-28T08:38:44.847Z,17.35
2017-03-28T08:39:53.934Z,17.35
2017-03-28T08:41:03.017Z,17.44
2017-03-28T08:42:12.091Z,17.64
2017-03-28T08:43:21.185Z,17.54
2017-03-28T08:44:30.249Z,17.44
2017-03-28T08:45:39.288Z,17.54
2017-03-28T08:46:48.655Z,17.35
2017-03-28T08:47:57.717Z,17.64
2017-03-28T08:49:07.726Z,17.54
2017-03-28T08:50:17.127Z,17.64
2017-03-28T08:51:25.906Z,17.65
2017-03-28T08:52:35.268Z,17.65
2017-03-28T08:53:44.620Z,17.55
2017-03-28T08:54:54.011Z,17.64
2017-03-28T08:56:03.721Z,17.55
2017-03-28T08:57:13.389Z,17.64
2017-03-28T08:58:22.446Z,17.55
2017-03-28T08:59:31.844Z,17.54
2017-03-28T09:00:40.939Z,17.64
2017-03-28T09:01:50.036Z,17.26
2017-03-28T09:02:59.436Z,17.55
2017-03-28T09:04:08.824Z,17.55
2017-03-28T09:05:17.885Z,17.26
2017-03-28T09:06:26.929Z,17.55
2017-03-28T09:07:35.710Z,17.07
2017-03-28T09:08:45.703Z,17.26
2017-03-28T09:09:55.101Z,17.36
2017-03-28T09:11:04.460Z,17.46
2017-03-28T09:12:13.470Z,17.18
2017-03-28T09:13:22.828Z,16.88
2017-03-28T09:14:31.914Z,17.08
2017-03-28T09:15:41.608Z,16.78
2017-03-28T09:16:50.667Z,16.69
2017-03-28T09:17:59.709Z,16.41
2017-03-28T09:19:08.801Z,16.31
2017-03-28T09:20:18.169Z,15.73
2017-03-28T09:21:26.879Z,15.06
2017-03-28T09:22:36.532Z,14.29
2017-03-28T09:23:45.927Z,13.63
2017-03-28T09:24:55.632Z,13.05
2017-03-28T09:26:04.705Z,12.09
2017-03-28T09:27:13.757Z,11.91
2017-03-28T09:28:23.456Z,11.04
2017-03-28T09:29:32.543Z,11.04
2017-03-28T09:30:41.603Z,10.75
2017-03-28T09:31:50.621Z,10.27
2017-03-28T09:32:59.972Z,9.69
2017-03-28T09:34:09.669Z,9.49
2017-03-28T09:35:19.043Z,8.91
2017-03-28T09:36:27.784Z,8.91
2017-03-28T09:37:36.571Z,8.53
2017-03-28T09:38:45.961Z,8.14
2017-03-28T09:39:55.666Z,7.75
2017-03-28T09:41:04.730Z,8.05
2017-03-28T09:42:13.769Z,7.65
2017-03-28T09:43:22.551Z,7.76
2017-03-28T09:44:31.635Z,7.46
2017-03-28T09:45:40.737Z,7.07
2017-03-28T09:46:49.518Z,7.27
2017-03-28T09:47:58.913Z,7.17
2017-03-28T09:49:08.309Z,6.88
2017-03-28T09:50:17.396Z,6.79
2017-03-28T09:51:26.490Z,6.88
2017-03-28T09:52:35.250Z,6.59
2017-03-28T09:53:44.629Z,6.5
2017-03-28T09:54:54.030Z,6.4
2017-03-28T09:56:04.042Z,6.21
2017-03-28T09:57:13.134Z,5.91
2017-03-28T09:58:22.529Z,5.62
2017-03-28T09:59:31.285Z,5.52
2017-03-28T10:00:40.636Z,5.82
2017-03-28T10:01:49.393Z,5.62
2017-03-28T10:02:58.145Z,5.33
2017-03-28T10:04:07.843Z,4.74
2017-03-28T10:05:17.520Z,5.23
2017-03-28T10:06:26.266Z,5.23
2017-03-28T10:07:35.978Z,4.94
2017-03-28T10:08:45.982Z,4.74
2017-03-28T10:09:55.077Z,4.64
2017-03-28T10:11:04.471Z,4.35
2017-03-28T10:12:13.553Z,4.05
2017-03-28T10:13:22.653Z,4.35
2017-03-28T10:14:31.741Z,4.15
2017-03-28T10:15:40.498Z,4.25
2017-03-28T10:16:50.156Z,3.96
2017-03-28T10:17:58.950Z,3.86
2017-03-28T10:19:08.346Z,3.66
2017-03-28T10:20:17.127Z,3.36
2017-03-28T10:21:26.830Z,3.66
2017-03-28T10:22:35.897Z,3.56
2017-03-28T10:23:45.551Z,3.17
2017-03-28T10:24:54.647Z,3.47
2017-03-28T10:26:04.359Z,3.27
2017-03-28T10:27:13.438Z,3.07
2017-03-28T10:28:22.523Z,3.27
2017-03-28T10:29:31.583Z,3.27
2017-03-28T10:30:40.669Z,2.97
2017-03-28T10:31:50.048Z,2.68
2017-03-28T10:33:00.068Z,2.78
2017-03-28T10:34:09.459Z,2.78
2017-03-28T10:35:18.555Z,2.68
2017-03-28T10:36:27.338Z,2.58
2017-03-28T10:37:36.122Z,2.58
2017-03-28T10:38:45.212Z,2.68
2017-03-28T10:39:54.900Z,2.68
2017-03-28T10:41:04.268Z,2.58
2017-03-28T10:42:13.353Z,2.48
2017-03-28T10:43:22.440Z,2.48
2017-03-28T10:44:31.832Z,2.39
2017-03-28T10:45:40.618Z,2.39
2017-03-28T10:46:49.402Z,2.39
2017-03-28T10:47:58.192Z,2.19
2017-03-28T10:49:07.893Z,2.29
2017-03-28T10:50:17.333Z,2.29
2017-03-28T10:51:26.722Z,2.48
2017-03-28T10:52:36.621Z,1.79
2017-03-28T10:53:45.407Z,2.19
2017-03-28T10:54:54.806Z,2.09
2017-03-28T10:56:04.211Z,1.79
2017-03-28T10:57:12.996Z,1.99
2017-03-28T10:58:22.087Z,1.79
2017-03-28T10:59:31.482Z,1.79
2017-03-28T11:00:40.580Z,1.5
2017-03-28T11:01:49.347Z,1.69
2017-03-28T11:02:58.417Z,1.79
2017-03-28T11:04:07.527Z,1.59
2017-03-28T11:05:17.243Z,1.29
2017-03-28T11:06:26.346Z,1.5
2017-03-28T11:07:36.022Z,1.69
2017-03-28T11:08:45.381Z,1.39
2017-03-28T11:09:55.292Z,1.39
2017-03-28T11:11:04.083Z,1.59
2017-03-28T11:12:13.134Z,1.39
2017-03-28T11:13:22.191Z,1.2
2017-03-28T11:14:31.317Z,1.29
2017-03-28T11:15:40.083Z,1.29
2017-03-28T11:16:49.135Z,0.99
2017-03-28T11:17:58.230Z,1.1
2017-03-28T11:19:07.633Z,0.9
2017-03-28T11:20:16.732Z,0.99
2017-03-28T11:21:25.520Z,1.1
2017-03-28T11:22:34.283Z,1.1
2017-03-28T11:23:43.328Z,0.9
2017-03-28T11:24:52.734Z,0.7
2017-03-28T11:26:02.170Z,0.6
2017-03-28T11:27:11.270Z,0.7
2017-03-28T11:28:20.560Z,0.9
2017-03-28T11:29:29.966Z,0.9
2017-03-28T11:30:39.669Z,0.7
2017-03-28T11:31:48.462Z,0.6
2017-03-28T11:32:57.785Z,0.8
2017-03-28T11:34:06.834Z,0.49
2017-03-28T11:35:16.242Z,0.7
2017-03-28T11:36:25.037Z,0.3
2017-03-28T11:37:34.137Z,0.7
2017-03-28T11:38:43.513Z,0.6
2017-03-28T11:39:53.192Z,0.7
2017-03-28T11:41:02.264Z,0.6
2017-03-28T11:42:11.618Z,0.8
2017-03-28T11:43:20.720Z,0.7
2017-03-28T11:44:30.099Z,0.7
2017-03-28T11:45:38.852Z,0.7
2017-03-28T11:46:48.225Z,0.7
2017-03-28T11:47:57.556Z,0.6
2017-03-28T11:49:06.918Z,0.9
2017-03-28T11:50:17.142Z,0.7
2017-03-28T11:51:26.210Z,0.8
2017-03-28T11:52:34.999Z,0.8
2017-03-28T11:53:44.098Z,0.7
2017-03-28T11:54:53.189Z,0.7
2017-03-28T11:56:02.580Z,0.7
2017-03-28T11:57:11.648Z,0.7
2017-03-28T11:58:20.393Z,0.7
2017-03-28T11:59:29.799Z,0.9
2017-03-28T12:00:38.906Z,0.8
2017-03-28T12:01:48.881Z,1.1
2017-03-28T12:02:57.935Z,1.1
2017-03-28T12:04:06.729Z,1.29
2017-03-28T12:05:15.518Z,1.59
2017-03-28T12:06:24.917Z,2.39
2017-03-28T12:07:34.315Z,2.69
2017-03-28T12:08:43.405Z,3.08
2017-03-28T12:09:52.185Z,3.57
2017-03-28T12:11:00.978Z,4.16
2017-03-28T12:12:10.041Z,4.95
2017-03-28T12:13:18.787Z,5.04
2017-03-28T12:14:27.579Z,5.53
2017-03-28T12:15:36.573Z,5.53
2017-03-28T12:16:45.382Z,6.02
2017-03-28T12:17:54.178Z,6.01
2017-03-28T12:19:02.982Z,6.3
2017-03-28T12:20:11.772Z,6.99
2017-03-28T12:21:21.164Z,6.99
2017-03-28T12:22:29.953Z,7.28
2017-03-28T12:23:38.743Z,7.76
2017-03-28T12:24:47.523Z,8.06
2017-03-28T12:25:57.092Z,8.25
2017-03-28T12:27:06.441Z,8.45
2017-03-28T12:28:15.530Z,8.73
2017-03-28T12:29:24.614Z,8.73
2017-03-28T12:30:33.397Z,9.31
2017-03-28T12:31:42.485Z,9.22
2017-03-28T12:32:51.566Z,9.61
2017-03-28T12:34:00.347Z,9.89
2017-03-28T12:35:09.142Z,10.08
2017-03-28T12:36:18.232Z,10.38
2017-03-28T12:37:27.021Z,10.47
2017-03-28T12:38:35.774Z,10.67
2017-03-28T12:39:44.824Z,10.86
2017-03-28T12:40:53.880Z,11.25
2017-03-28T12:42:02.659Z,11.24
2017-03-28T12:43:11.759Z,11.63
2017-03-28T12:44:20.542Z,11.82
2017-03-28T12:45:29.328Z,11.82
2017-03-28T12:46:38.120Z,12.01
2017-03-28T12:47:47.179Z,12.21
2017-03-28T12:48:55.920Z,12.4
2017-03-28T12:50:04.677Z,12.4
2017-03-28T12:51:13.725Z,12.3
2017-03-28T12:52:22.821Z,12.79
2017-03-28T12:53:31.923Z,12.59
2017-03-28T12:54:42.026Z,12.98
2017-03-28T12:55:51.416Z,12.88
2017-03-28T12:57:00.174Z,13.17
2017-03-28T12:58:09.516Z,13.17
2017-03-28T12:59:18.563Z,13.46
2017-03-28T13:00:27.623Z,13.45
2017-03-28T13:01:36.358Z,13.45
2017-03-28T13:02:45.440Z,13.75
2017-03-28T13:03:54.520Z,13.94
2017-03-28T13:05:03.597Z,13.84
2017-03-28T13:06:12.690Z,14.13
2017-03-28T13:07:21.528Z,14.23
2017-03-28T13:08:30.613Z,14.23
2017-03-28T13:09:39.678Z,13.84
2017-03-28T13:10:48.431Z,14.62
2017-03-28T13:11:57.207Z,14.32
2017-03-28T13:13:06.266Z,14.12
2017-03-28T13:14:15.033Z,14.22
2017-03-28T13:15:23.837Z,14.81
2017-03-28T13:16:32.919Z,14.61
2017-03-28T13:17:42.315Z,14.71
2017-03-28T13:18:51.405Z,14.89
2017-03-28T13:20:00.191Z,14.7
2017-03-28T13:21:09.249Z,14.99
2017-03-28T13:22:18.898Z,15.09
2017-03-28T13:23:27.649Z,15.19
2017-03-28T13:24:36.421Z,15.48
2017-03-28T13:25:45.457Z,15.47
2017-03-28T13:26:54.476Z,15.57
2017-03-28T13:28:03.219Z,15.57
2017-03-28T13:29:12.307Z,15.47
2017-03-28T13:30:21.086Z,15.28
2017-03-28T13:31:30.148Z,15.47
2017-03-28T13:32:39.500Z,15.37
2017-03-28T13:33:48.908Z,15.67
2017-03-28T13:34:58.001Z,15.96
2017-03-28T13:36:06.778Z,15.77
2017-03-28T13:37:15.863Z,15.47
2017-03-28T13:38:24.645Z,15.67
2017-03-28T13:39:33.705Z,15.95
2017-03-28T13:40:42.752Z,16.14
2017-03-28T13:41:51.514Z,15.95
2017-03-28T13:43:00.457Z,16.05
2017-03-28T13:44:09.540Z,16.05
2017-03-28T13:45:18.328Z,16.34
2017-03-28T13:46:27.698Z,16.44
2017-03-28T13:47:36.744Z,16.34
2017-03-28T13:48:45.831Z,16.53
2017-03-28T13:49:55.499Z,16.14
2017-03-28T13:51:04.514Z,16.24
2017-03-28T13:52:13.559Z,16.43
2017-03-28T13:53:22.334Z,16.04
2017-03-28T13:54:31.122Z,16.33
2017-03-28T13:55:40.842Z,16.24
2017-03-28T13:56:49.926Z,16.43
2017-03-28T13:57:59.329Z,16.53
2017-03-28T13:59:08.105Z,16.43
2017-03-28T14:00:16.990Z,16.61
2017-03-28T14:01:25.783Z,16.62
2017-03-28T14:02:34.570Z,16.81
2017-03-28T14:03:43.365Z,16.71
2017-03-28T14:04:52.750Z,16.81
2017-03-28T14:06:01.540Z,16.81
2017-03-28T14:07:10.637Z,16.91
2017-03-28T14:08:19.459Z,16.91
2017-03-28T14:09:28.244Z,16.61
2017-03-28T14:10:37.025Z,16.81
2017-03-28T14:11:45.806Z,16.81
2017-03-28T14:12:54.899Z,16.91
2017-03-28T14:14:03.984Z,16.91
2017-03-28T14:15:13.079Z,17.3
2017-03-28T14:16:21.859Z,17
2017-03-28T14:17:30.642Z,16.71
2017-03-28T14:18:39.706Z,17.4
2017-03-28T14:19:48.647Z,17.4
2017-03-28T14:20:57.428Z,17.09
2017-03-28T14:22:06.522Z,17.19
2017-03-28T14:23:15.915Z,17.38
2017-03-28T14:24:25.007Z,17.48
2017-03-28T14:25:33.790Z,16.99
2017-03-28T14:26:42.871Z,17.09
2017-03-28T14:27:51.656Z,17.19
2017-03-28T14:29:00.687Z,17.29
2017-03-28T14:30:09.455Z,17.58
2017-03-28T14:31:18.550Z,17.19
2017-03-28T14:32:27.645Z,17.29
2017-03-28T14:33:36.738Z,17.68
2017-03-28T14:34:45.522Z,17.48
2017-03-28T14:35:54.304Z,17.58
2017-03-28T14:37:03.062Z,17.58
2017-03-28T14:38:12.418Z,17.48
2017-03-28T14:39:21.786Z,17.97
2017-03-28T14:40:30.801Z,17.77
2017-03-28T14:41:39.815Z,17.76
2017-03-28T14:42:48.852Z,17.86
2017-03-28T14:43:58.244Z,17.68
2017-03-28T14:45:07.028Z,17.86
2017-03-28T14:46:16.316Z,17.86
2017-03-28T14:47:25.104Z,17.76
2017-03-28T14:48:33.890Z,17.86
2017-03-28T14:49:43.283Z,17.86
2017-03-28T14:50:52.064Z,17.96
2017-03-28T14:52:00.820Z,18.25
2017-03-28T14:53:09.559Z,18.05
2017-03-28T14:54:18.333Z,18.05
2017-03-28T14:55:27.720Z,18.05
2017-03-28T14:56:36.505Z,18.05
2017-03-28T14:57:45.282Z,18.25
2017-03-28T14:58:54.368Z,18.35
2017-03-28T15:00:03.149Z,18.35